ACT        NSW        VIC        QLD        SA        WA        TAS        NT        INFO        CALC            by VK5ZD

  Atmospheric Gas Attenuation - ITU Rec 676-11   --------------- db/100km ---------------
Station Date Time Temp RH % AH g/m3 Dew Point Wind Direction Speed kph Gust kph Barometer mB Rainfall Since 9am 24GHz 47GHz 76GHz 122GHz 134GHz 241GHz
Adelaide (West Terrace / Ngayirdapira) 28 12:20 20 48 8.29 8.7 15 19 1018.8 0 18.6 23.9 35.9 94.1 87.6 301.3
Adelaide Airport 28 12:20 17.7 63 9.5 10.6 17 19 1019.1 0 21.3 26.4 41.6 109.4 105.6 364.0
Andamooka 28 09:00 18 55 8.45 8.8 7 1013.1 0 19.1 24.5 37.2 97.5 91.4 314.4
Arkaroola 28 09:00 17.1 68 9.9 11.1 13 1013.1 0 22.2 27.0 43.3 113.8 111.1 383.4
Cape Borda 28 12:20 15.4 83 10.9 12.5 17 19 1019.2 0 24.4 29.5 48.7 128.2 128.0 442.0
Cape Jaffa 28 12:20 17.7 62 9.35 10.3 17 19 1013.1 0 21.0 26.0 40.8 107.1 103.1 355.5
Cape Willoughby 28 12:20 15.2 75 9.73 10.8 9 11 1013.1 0 21.9 27.3 43.6 114.7 111.6 384.8
Ceduna 28 12:20 25.6 21 5 1.7 22 28 1017.2 0 11.6 18.2 23.0 59.7 46.9 159.2
Clare 28 12:20 19.6 41 6.92 6 11 15 1018.3 0.2 15.8 22.0 31.2 81.4 71.8 246.0
Cleve 28 09:00 15.4 83 10.9 12.5 0 1019.7 1 24.4 29.5 48.7 128.3 128.0 442.2
Cleve Airport 28 12:20 21.6 38 7.21 6.7 6 7 1018.1 0.2 16.3 21.9 31.4 82.1 73.3 251.5
Coober Pedy Airport 28 12:20 24.8 21 4.78 1 11 15 1018.3 0 11.1 18.1 22.6 58.5 45.2 153.1
Coonawarra 28 12:20 19.9 48 8.25 8.6 11 13 1018.1 0 18.6 23.8 35.8 93.8 87.2 299.9
Cultana (Defence) 28 12:20 21.2 41 7.6 7.4 13 15 1013.1 0 17.1 22.4 32.7 85.7 77.8 267.3
Cummins Airport 28 12:20 23.9 36 7.79 7.9 19 22 1017.9 0 17.4 22.2 32.5 85.0 77.7 267.1
Edinburgh 28 12:20 20.6 46 8.23 8.6 15 19 1018.8 0 18.5 23.7 35.4 92.8 86.2 296.6
Elliston 28 09:00 16.7 73 10.37 11.8 15 1019.7 0 23.2 28.2 45.7 120.2 118.6 409.5
Ernabella/Pukatja 28 12:20 27 12 3.09 -4.8 6 6 1017 0 7.6 15.7 17.2 44.2 28.3 93.5
Gluepot 28 09:00 15.1 73 9.42 10.3 2 1013.1 1 21.3 26.8 42.4 111.5 107.6 370.7
Hawker 28 09:00 15.1 75 9.68 10.8 2 1016.5 1 21.8 27.4 43.6 114.7 111.4 383.9
Hindmarsh Island 28 12:20 17.5 67 9.99 11.3 17 19 1018.8 0 22.4 27.3 43.7 114.8 112.2 387.3
Kadina 28 12:20 20.6 53 9.48 10.7 22 24 1018.7 0 21.1 25.5 40.1 105.2 101.4 350.0
Karoonda 28 09:00 13.5 82 9.59 10.6 0 1013.1 2 21.7 27.6 44.0 115.7 112.1 386.5
Keith 28 09:00 12.5 82 9.02 9.5 4 1020.4 1 20.5 27.2 42.5 111.6 106.4 366.2
Keith West 28 12:20 22.6 33 6.63 5.5 11 13 1013.1 0 15.1 20.7 28.9 75.5 65.7 224.9
Kimba 28 09:00 14.4 76 9.39 10.2 0 1013.1 0 21.2 27.0 42.7 112.2 108.1 372.6
Kingscote 28 12:20 20.4 56 9.91 11.3 17 22 1018.3 0 22.0 26.2 41.8 109.8 107.1 369.7
Kuitpo 28 12:20 18.2 53 8.24 8.5 17 20 1017.5 0 18.6 24.3 36.5 95.6 88.9 305.7
Kyancutta 28 09:00 20.4 53 9.38 10.7 9 1019.2 0 20.9 25.5 39.8 104.5 100.5 346.6
Lameroo Aws 28 12:20 22 35 6.79 5.8 15 19 1013.1 0 15.4 21.1 29.7 77.5 68.0 232.7
Leigh Creek 28 12:20 21.9 30 5.79 3.6 9 13 1017.2 0 13.3 19.9 26.5 69.1 57.4 195.5
Loxton 28 12:20 21.5 35 6.6 5.7 17 19 1017.7 0 15.0 21.1 29.4 76.6 66.5 227.7
Maitland 28 09:00 17.5 85 12.67 14.9 4 1019.9 0 28.1 31.8 55.1 145.1 149.5 517.3
Marree Airport 28 12:20 25 26 5.99 4.2 20 26 1017.9 0 13.6 19.5 26.2 68.3 57.4 195.8
Minlaton Airport 28 12:20 22.1 38 7.42 7.1 19 24 1018.7 0 16.7 22.1 32.0 83.6 75.3 258.4
Minnipa Rs 28 12:20 23.6 29 6.17 4.5 19 24 1018.3 0 14.1 20.1 27.3 71.0 60.3 205.9
Moomba Airport 28 12:20 24.7 18 4.07 -1.2 19 20 1017 0 9.7 17.2 20.5 52.9 38.3 128.7
Mount Crawford 28 12:20 18.3 49 7.66 7.4 9 9 1018.2 0 17.4 23.4 34.3 89.8 81.8 280.7
Mount Gambier 28 12:20 19.4 54 9.01 9.9 9 9 1018.2 0 20.2 25.1 38.9 101.9 97.1 334.5
Mount Lofty 28 12:20 16.2 56 7.72 7.6 9 13 1013.1 0.2 17.6 23.8 35.2 92.3 84.3 289.5
Murray Bridge 28 09:00 15.7 70 9.37 10.2 0 1013.1 1 21.1 26.6 41.9 110.1 106.1 365.6
Naracoorte 28 12:20 20.5 50 8.9 9.7 0 4 1018 0 19.9 24.7 37.9 99.4 94.4 325.1
Noarlunga 28 12:20 18.8 54 8.7 9.3 11 13 1013.1 0 19.6 24.6 37.8 99.1 93.5 322.1
Nullarbor 28 12:20 28.9 15 4.29 -0.3 30 33 1015.8 0 10.0 16.7 20.1 51.9 38.4 129.5
Nuriootpa 28 12:20 20.1 49 8.52 9.1 0 0 1018.5 0.2 19.1 24.2 36.7 96.2 90.2 310.6
Oodnadatta 28 12:20 26.8 19 4.84 1.3 9 11 1018.2 0 11.2 17.8 22.2 57.6 44.8 151.6
Padthaway 28 12:20 21 40 7.33 6.9 11 13 1013.1 0 16.6 22.1 31.9 83.4 74.9 257.1
Pallamana 28 12:20 22.4 37 7.35 7.1 9 11 1018.4 0 16.6 21.9 31.6 82.6 74.2 254.6
Parafield 28 12:20 22.3 40 7.9 8.1 9 11 1018.6 0 17.7 22.7 33.5 87.8 80.6 277.0
Parawa West 28 12:20 17.4 52 7.71 7.4 11 17 1013.1 0.2 17.5 23.5 34.7 90.9 82.9 284.8
Parndana 28 12:20 19.6 58 9.79 11.1 15 17 1013.1 0 21.8 26.1 41.5 109.1 106.2 366.5
Point Avoid 28 12:20 19.7 58 9.85 11.4 13 15 1013.1 0 21.9 26.2 41.7 109.6 106.8 368.7
Port Augusta 28 12:20 22.9 34 6.95 6.2 15 20 1018.2 0 15.7 21.3 30.1 78.5 69.3 237.4
Port Lincoln Airport 28 12:20 19.2 67 11.05 12.9 22 26 1018.7 0 24.5 28.4 47.0 123.7 123.8 427.8
Port Pirie Airport Aws 28 12:20 22.5 38 7.59 7.5 15 17 1017.7 0 17.1 22.2 32.4 84.6 76.8 263.7
Price 28 09:00 15.5 85 11.24 13 4 1013.1 0 25.2 29.8 49.8 131.2 132.0 456.1
Renmark Airport 28 12:20 22.4 37 7.35 7 19 22 1017.5 0 16.6 21.9 31.6 82.5 74.1 254.4
Robe Airport 28 12:20 17.2 74 10.84 12.5 13 17 1013.1 0 24.2 28.5 47.1 123.9 123.6 427.0
Roseworthy 28 12:20 22.7 37 7.48 7.3 13 17 1018.1 0 16.8 22.0 31.9 83.5 75.4 258.8
Roxby Downs 28 12:20 23.2 31 6.44 5.1 15 17 1018.1 0 14.6 20.5 28.3 73.7 63.5 217.0
Snowtown 28 12:20 21.7 32 6.1 4.3 9 13 1018.5 0 14.0 20.4 27.7 72.1 60.9 208.0
Stenhouse Bay 28 12:20 17.3 64 9.43 10.4 11 13 1013.1 0 21.2 26.2 41.3 108.5 104.7 360.9
Strathalbyn 28 12:20 21.1 43 7.92 8 19 20 1018 0.2 17.8 23.1 34.1 89.2 82.0 281.8
Streaky Bay 28 09:00 16.9 71 10.21 11.6 13 1018.9 0 22.9 27.8 44.9 118.1 116.1 400.6
Tarcoola 28 12:20 25.6 19 4.52 0.3 7 13 1018.4 0 10.6 17.6 21.6 55.9 42.3 142.7
Victor Harbor 28 09:00 14.8 78 9.88 11.1 6 1013.1 0.1 22.3 27.7 44.5 117.0 114.2 393.9
Warooka 28 09:00 14.7 81 10.2 11.5 2 1020.5 0 23.0 28.5 46.2 121.5 119.4 412.1
Whyalla 28 12:20 20.2 47 8.22 8.5 15 17 1018.8 0 18.5 23.7 35.6 93.2 86.5 297.7
Woomera 28 12:20 21.9 34 6.56 5.3 9 11 1018.4 0 14.9 21.0 29.1 75.9 65.8 225.1
Wudinna Airport 28 12:20 22.9 28 5.72 3.4 15 19 1017.8 0 13.2 19.6 26.0 67.7 56.0 190.7
Yongala 28 09:00 12 85 9.06 9.5 0 1013.1 0.6 20.7 27.2 42.6 112.0 107.0 368.3
Yunta 28 12:20 19.1 46 7.54 7.2 17 22 1013.1 0 17.1 22.8 33.4 87.3 79.2 271.8

Last Refresh: 28-Oct-2020 12:26:13

The information presented on this site is sourced from the Bureau of Meteorology.  Copyright in all material sourced from the Bureau of Meteorology resides with the Commonwealth of Australia.